Weather at Yichun Lindu Airport

Public forecast

Using degrees Celsius for public forecast. Weather courtesy of forecast.io.

Closest aviation weather report (METAR) to Yichun Lindu Airport

Report is more than 6 hours old.

Closest report is Jiamusi Dongjiao Airport, 80.3 nm (148.6 km) SE. Retrieved 2014/08/23 03:00 UTC (8 years ago):

ZYJM 230300Z 07002MPS 9999 FEW030CB SCT026 26/20 Q1006 NOSIG

Closest aviation forecast (TAF) to Yichun Lindu Airport

Forecast is more than 12 hours old.

Closest forecast is Harbin Taiping International Airport, 171.3 nm (317.2 km) SW. Retrieved 2022/09/01 06:03 UTC (1 month ago):

TAF ZYHB 010303Z 0106/0206 28005MPS 6000 FEW033 TX20/0106Z TN10/0122Z BECMG 0109/0110 20004MPS